createdAt,value
2023-04-06T00:00:23.492Z,76.76
2023-04-06T00:02:54.012Z,77.57
2023-04-06T00:05:24.988Z,77.71
2023-04-06T00:07:56.112Z,77.89
2023-04-06T00:10:25.408Z,77.88
2023-04-06T00:12:54.749Z,78.83
2023-04-06T00:15:24.074Z,78.15
2023-04-06T00:17:53.227Z,77.90
2023-04-06T00:20:22.685Z,77.95
2023-04-06T00:22:51.543Z,78.29
2023-04-06T00:25:20.712Z,78.48
2023-04-06T00:27:49.579Z,79.02
2023-04-06T00:30:18.940Z,79.55
2023-04-06T00:32:47.938Z,79.11
2023-04-06T00:35:17.765Z,78.89
2023-04-06T00:37:50.152Z,78.91
2023-04-06T00:40:19.602Z,79.25
2023-04-06T00:42:48.568Z,80.11
2023-04-06T00:45:17.820Z,80.48
2023-04-06T00:47:46.751Z,80.12
2023-04-06T00:50:16.525Z,80.09
2023-04-06T00:52:45.481Z,79.81
2023-04-06T00:55:14.975Z,80.94
2023-04-06T00:57:45.990Z,80.52
2023-04-06T01:00:15.943Z,80.98
2023-04-06T01:02:48.403Z,80.55
2023-04-06T01:05:21.913Z,80.54
2023-04-06T01:07:57.801Z,80.19
2023-04-06T01:10:30.672Z,79.88
2023-04-06T01:13:15.350Z,81.05
2023-04-06T01:16:05.169Z,79.64
2023-04-06T01:18:54.363Z,79.90
2023-04-06T01:21:32.035Z,80.47
2023-04-06T01:24:19.781Z,79.90
2023-04-06T01:27:20.860Z,80.24
2023-04-06T01:30:22.481Z,81.04
2023-04-06T01:32:59.321Z,79.82
2023-04-06T01:35:48.556Z,78.81
2023-04-06T01:38:20.780Z,79.51
2023-04-06T01:40:51.219Z,78.78
2023-04-06T01:43:24.251Z,78.95
2023-04-06T01:46:23.362Z,78.41
2023-04-06T01:48:53.885Z,78.26
2023-04-06T01:51:34.715Z,77.11
2023-04-06T01:54:06.432Z,76.91
2023-04-06T01:56:58.405Z,76.32
2023-04-06T01:59:34.537Z,76.00
2023-04-06T02:02:09.798Z,75.64
2023-04-06T02:04:40.844Z,75.63
2023-04-06T02:07:13.706Z,75.35
2023-04-06T02:09:42.928Z,75.04
2023-04-06T02:12:18.552Z,74.58
2023-04-06T02:14:47.566Z,74.13
2023-04-06T02:17:16.945Z,73.84
2023-04-06T02:19:46.080Z,73.09
2023-04-06T02:22:15.086Z,72.88
2023-04-06T02:24:44.157Z,73.30
2023-04-06T02:27:13.211Z,73.01
2023-04-06T02:29:42.386Z,72.38
2023-04-06T02:32:11.701Z,73.18
2023-04-06T02:34:40.923Z,72.39
2023-04-06T02:37:09.911Z,71.92
2023-04-06T02:39:38.948Z,71.54
2023-04-06T02:42:10.849Z,71.70
2023-04-06T02:44:40.006Z,71.36
2023-04-06T02:47:10.700Z,70.57
2023-04-06T02:49:42.173Z,69.99
2023-04-06T02:52:11.624Z,68.94
2023-04-06T02:54:40.392Z,68.11
2023-04-06T02:57:10.361Z,67.14
2023-04-06T02:59:43.543Z,66.97
2023-04-06T03:02:28.248Z,66.59
2023-04-06T03:05:06.463Z,65.53
2023-04-06T03:07:40.149Z,64.99
2023-04-06T03:10:13.963Z,65.81
2023-04-06T03:12:43.677Z,65.03
2023-04-06T03:15:22.772Z,63.30
2023-04-06T03:18:02.264Z,61.82
2023-04-06T03:20:39.459Z,58.84
2023-04-06T03:23:08.853Z,60.70
2023-04-06T03:25:42.163Z,61.34
2023-04-06T03:28:16.588Z,60.22
2023-04-06T03:31:05.714Z,58.97
2023-04-06T03:34:01.343Z,58.48
2023-04-06T03:36:34.269Z,57.17
2023-04-06T03:39:05.382Z,56.54
2023-04-06T03:41:37.871Z,54.66
2023-04-06T03:44:15.574Z,55.54
2023-04-06T03:46:46.339Z,55.80
2023-04-06T03:49:15.520Z,54.43
2023-04-06T03:51:47.898Z,55.34
2023-04-06T03:54:17.427Z,55.13
2023-04-06T03:56:46.833Z,54.08
2023-04-06T03:59:16.100Z,54.36
2023-04-06T04:01:45.009Z,53.21
2023-04-06T04:04:13.961Z,53.41
2023-04-06T04:06:42.689Z,52.74
2023-04-06T04:09:11.780Z,52.88
2023-04-06T04:11:40.688Z,52.31
2023-04-06T04:14:09.924Z,51.87
2023-04-06T04:16:38.935Z,51.39
2023-04-06T04:19:08.310Z,50.98
2023-04-06T04:21:48.191Z,50.26
2023-04-06T04:24:22.100Z,50.18
2023-04-06T04:26:51.328Z,48.63
2023-04-06T04:29:23.110Z,48.60
2023-04-06T04:31:54.642Z,48.88
2023-04-06T04:34:26.941Z,47.78
2023-04-06T04:36:56.056Z,47.73
2023-04-06T04:39:35.576Z,47.12
2023-04-06T04:42:08.209Z,47.44
2023-04-06T04:44:41.989Z,47.02
2023-04-06T04:51:12.339Z,46.21
2023-04-06T04:54:06.191Z,44.13
2023-04-06T04:56:35.858Z,44.40
2023-04-06T04:59:23.469Z,44.77
2023-04-06T05:02:00.238Z,45.91
2023-04-06T05:04:40.055Z,46.48
2023-04-06T05:07:13.026Z,45.72
2023-04-06T05:09:44.126Z,43.63
2023-04-06T05:12:14.768Z,44.27
2023-04-06T05:14:56.874Z,43.52
2023-04-06T05:17:26.812Z,42.86
2023-04-06T05:19:57.356Z,42.66
2023-04-06T05:22:29.322Z,42.89
2023-04-06T05:25:08.204Z,43.83
2023-04-06T05:27:38.299Z,42.75
2023-04-06T05:30:13.046Z,44.80
2023-04-06T05:32:48.108Z,44.99
2023-04-06T05:35:18.038Z,44.98
2023-04-06T05:37:51.434Z,44.34
2023-04-06T05:40:24.382Z,44.61
2023-04-06T05:42:54.073Z,44.09
2023-04-06T05:45:23.629Z,45.58
2023-04-06T05:47:57.340Z,44.78
2023-04-06T05:50:31.130Z,43.94
2023-04-06T05:53:00.796Z,44.01
2023-04-06T05:55:35.857Z,43.57
2023-04-06T05:58:35.350Z,43.56
2023-04-06T06:01:08.824Z,43.68
2023-04-06T06:03:43.001Z,42.47
2023-04-06T06:06:12.537Z,42.24
2023-04-06T06:09:05.579Z,43.11
2023-04-06T06:11:40.114Z,43.37
2023-04-06T06:14:10.522Z,42.49
2023-04-06T06:16:42.726Z,43.35
2023-04-06T06:19:15.076Z,43.39
2023-04-06T06:21:45.931Z,42.43
2023-04-06T06:24:15.733Z,41.49
2023-04-06T06:26:45.241Z,42.75
2023-04-06T06:29:16.942Z,42.73
2023-04-06T06:31:46.975Z,43.26
2023-04-06T06:34:16.454Z,42.42
2023-04-06T06:36:47.867Z,41.71
2023-04-06T06:39:18.616Z,42.77
2023-04-06T06:41:48.502Z,42.92
2023-04-06T06:44:18.784Z,42.37
2023-04-06T06:46:48.314Z,41.95
2023-04-06T06:49:17.615Z,42.29
2023-04-06T06:51:48.558Z,43.22
2023-04-06T06:54:18.442Z,43.46
2023-04-06T06:56:48.045Z,43.28
2023-04-06T06:59:18.419Z,42.98
2023-04-06T07:01:48.144Z,43.00
2023-04-06T07:04:17.676Z,42.77
2023-04-06T07:06:47.517Z,42.96
2023-04-06T07:09:16.868Z,43.37
2023-04-06T07:11:47.003Z,42.13
2023-04-06T07:14:19.428Z,43.94
2023-04-06T07:16:51.265Z,43.06
2023-04-06T07:19:21.198Z,42.06
2023-04-06T07:21:51.747Z,41.02
2023-04-06T07:24:21.109Z,40.33
2023-04-06T07:26:50.500Z,41.80
2023-04-06T07:29:20.276Z,42.29
2023-04-06T07:31:51.240Z,40.70
2023-04-06T07:34:20.961Z,42.54
2023-04-06T07:36:50.361Z,40.74
2023-04-06T07:39:19.851Z,40.13
2023-04-06T07:41:49.550Z,41.58
2023-04-06T07:44:19.323Z,37.19
2023-04-06T07:46:49.253Z,39.13
2023-04-06T07:49:19.847Z,38.80
2023-04-06T07:51:49.313Z,34.19
2023-04-06T07:54:18.640Z,34.44
2023-04-06T07:56:48.586Z,37.13
2023-04-06T07:59:18.190Z,37.49
2023-04-06T08:01:47.838Z,35.85
2023-04-06T08:04:17.212Z,36.32
2023-04-06T08:06:47.078Z,38.85
2023-04-06T08:09:16.463Z,34.29
2023-04-06T08:11:46.932Z,35.92
2023-04-06T08:14:17.488Z,34.55
2023-04-06T08:16:47.558Z,35.35
2023-04-06T08:19:19.244Z,35.75
2023-04-06T08:21:49.712Z,35.61
2023-04-06T08:24:19.132Z,36.00
2023-04-06T08:26:48.386Z,36.25
2023-04-06T08:29:18.541Z,36.78
2023-04-06T08:31:47.814Z,36.25
2023-04-06T08:34:17.231Z,37.61
2023-04-06T08:36:48.216Z,36.16
2023-04-06T08:39:17.609Z,36.37
2023-04-06T08:41:47.095Z,35.95
2023-04-06T08:44:17.196Z,36.34
2023-04-06T08:46:47.103Z,34.22
2023-04-06T08:49:18.647Z,33.94
2023-04-06T08:51:53.816Z,34.30
2023-04-06T08:54:23.483Z,34.01
2023-04-06T08:56:54.594Z,32.83
2023-04-06T08:59:25.918Z,33.23
2023-04-06T09:01:57.656Z,32.29
2023-04-06T09:04:28.931Z,33.61
2023-04-06T09:07:04.086Z,34.47
2023-04-06T09:09:33.696Z,33.98
2023-04-06T09:12:07.791Z,34.64
2023-04-06T09:14:41.622Z,35.00
2023-04-06T09:17:11.228Z,35.77
2023-04-06T09:19:50.123Z,35.75
2023-04-06T09:22:20.698Z,34.61
2023-04-06T09:24:52.928Z,36.97
2023-04-06T09:27:38.323Z,36.79
2023-04-06T09:30:15.469Z,36.95
2023-04-06T09:32:49.210Z,36.96
2023-04-06T09:35:19.738Z,37.15
2023-04-06T09:37:51.655Z,35.70
2023-04-06T09:40:23.563Z,35.92
2023-04-06T09:42:55.096Z,36.53
2023-04-06T09:45:24.774Z,36.58
2023-04-06T09:47:55.954Z,35.25
2023-04-06T09:50:27.113Z,37.01
2023-04-06T09:53:07.862Z,36.22
2023-04-06T09:55:48.705Z,36.27
2023-04-06T09:58:28.292Z,35.81
2023-04-06T10:01:18.191Z,37.08
2023-04-06T10:04:09.950Z,37.85
2023-04-06T10:06:41.128Z,38.24
2023-04-06T10:09:11.628Z,37.52
2023-04-06T10:11:41.339Z,37.00
2023-04-06T10:14:10.992Z,39.06
2023-04-06T10:16:41.271Z,38.48
2023-04-06T10:19:19.391Z,38.76
2023-04-06T10:21:53.571Z,37.67
2023-04-06T10:24:23.594Z,37.92
2023-04-06T10:27:05.235Z,37.52
2023-04-06T10:29:50.691Z,37.90
2023-04-06T10:32:20.211Z,37.46
2023-04-06T10:34:49.499Z,37.63
2023-04-06T10:37:21.263Z,36.67
2023-04-06T10:40:00.345Z,37.59
2023-04-06T10:42:42.416Z,37.01
2023-04-06T10:45:23.118Z,36.93
2023-04-06T10:47:55.859Z,37.55
2023-04-06T10:50:25.194Z,35.96
2023-04-06T10:53:05.229Z,38.25
2023-04-06T10:55:36.957Z,38.06
2023-04-06T10:58:09.766Z,37.85
2023-04-06T11:00:50.602Z,37.64
2023-04-06T11:03:21.768Z,37.63
2023-04-06T11:05:53.660Z,35.17
2023-04-06T11:08:31.017Z,35.47
2023-04-06T11:11:07.847Z,35.32
2023-04-06T11:13:46.791Z,35.40
2023-04-06T11:16:26.277Z,37.26
2023-04-06T11:18:58.277Z,36.56
2023-04-06T11:21:45.274Z,37.53
2023-04-06T11:24:15.571Z,38.50
2023-04-06T11:26:50.574Z,39.17
2023-04-06T11:29:24.937Z,39.24
2023-04-06T11:32:03.154Z,40.30
2023-04-06T11:34:38.987Z,39.34
2023-04-06T11:37:14.058Z,39.68
2023-04-06T11:39:51.541Z,39.27
2023-04-06T11:42:29.132Z,39.29
2023-04-06T11:45:02.490Z,40.38
2023-04-06T11:47:40.021Z,40.27
2023-04-06T11:50:16.782Z,40.07
2023-04-06T11:52:46.781Z,40.56
2023-04-06T11:55:23.092Z,39.96
2023-04-06T11:57:53.788Z,39.59
2023-04-06T12:00:24.102Z,39.82
2023-04-06T12:02:54.059Z,39.87
2023-04-06T12:05:27.182Z,38.83
2023-04-06T12:07:57.480Z,38.47
2023-04-06T12:10:28.574Z,39.23
2023-04-06T12:12:57.760Z,39.45
2023-04-06T12:15:29.725Z,38.64
2023-04-06T12:17:59.098Z,39.69
2023-04-06T12:20:28.395Z,39.28
2023-04-06T12:22:58.110Z,39.55
2023-04-06T12:25:27.314Z,40.23
2023-04-06T12:27:56.898Z,40.27
2023-04-06T12:30:26.485Z,40.31
2023-04-06T12:32:55.970Z,39.65
2023-04-06T12:35:25.232Z,40.02
2023-04-06T12:37:54.718Z,40.58
2023-04-06T12:40:23.981Z,40.62
2023-04-06T12:42:53.307Z,41.37
2023-04-06T12:45:22.687Z,40.76
2023-04-06T12:47:53.331Z,41.20
2023-04-06T12:50:22.933Z,41.81
2023-04-06T12:52:52.138Z,42.44
2023-04-06T12:55:22.901Z,42.95
2023-04-06T12:57:52.331Z,42.96
2023-04-06T13:00:22.477Z,43.38
2023-04-06T13:02:52.212Z,43.75
2023-04-06T13:05:21.587Z,44.00
2023-04-06T13:07:50.933Z,44.17
2023-04-06T13:10:20.113Z,44.41
2023-04-06T13:12:49.472Z,44.52
2023-04-06T13:15:18.729Z,45.47
2023-04-06T13:17:48.334Z,45.27
2023-04-06T13:20:17.604Z,46.05
2023-04-06T13:22:47.154Z,46.91
2023-04-06T13:25:16.629Z,46.58
2023-04-06T13:27:48.246Z,47.47
2023-04-06T13:30:18.248Z,47.33
2023-04-06T13:32:47.487Z,47.92
2023-04-06T13:35:17.010Z,48.22
2023-04-06T13:37:46.977Z,48.46
2023-04-06T13:40:16.480Z,49.66
2023-04-06T13:42:47.231Z,49.11
2023-04-06T13:45:17.320Z,49.73
2023-04-06T13:47:47.662Z,49.72
2023-04-06T13:50:17.188Z,50.06
2023-04-06T13:52:46.708Z,50.28
2023-04-06T13:55:16.818Z,50.60
2023-04-06T13:57:46.081Z,51.00
2023-04-06T14:00:16.914Z,51.81
2023-04-06T14:02:46.500Z,52.01
2023-04-06T14:05:15.977Z,51.82
2023-04-06T14:07:45.530Z,52.02
2023-04-06T14:10:16.289Z,52.07
2023-04-06T14:12:48.649Z,52.01
2023-04-06T14:15:18.507Z,52.34
2023-04-06T14:17:47.848Z,52.01
2023-04-06T14:20:17.431Z,52.76
2023-04-06T14:22:46.788Z,52.91
2023-04-06T14:25:16.030Z,52.86
2023-04-06T14:27:46.548Z,53.73
2023-04-06T14:30:16.887Z,53.68
2023-04-06T14:32:46.480Z,53.66
2023-04-06T14:35:15.822Z,54.22
2023-04-06T14:37:45.997Z,54.53
2023-04-06T14:40:15.297Z,54.46
2023-04-06T14:42:44.734Z,55.20
2023-04-06T14:45:14.122Z,55.29
2023-04-06T14:47:43.501Z,56.01
2023-04-06T14:50:13.319Z,56.78
2023-04-06T14:52:42.644Z,56.55
2023-04-06T14:55:11.869Z,56.42
2023-04-06T14:57:41.506Z,56.87
2023-04-06T15:00:11.525Z,56.97
2023-04-06T15:02:42.379Z,57.50
2023-04-06T15:05:13.059Z,57.87
2023-04-06T15:07:42.521Z,58.37
2023-04-06T15:10:12.528Z,58.08
2023-04-06T15:13:15.583Z,57.27
2023-04-06T15:15:53.720Z,57.03
2023-04-06T15:18:23.068Z,57.85
2023-04-06T15:20:52.661Z,57.17
2023-04-06T15:23:22.071Z,57.98
2023-04-06T15:25:51.818Z,58.15
2023-04-06T15:28:21.326Z,58.63
2023-04-06T15:30:50.474Z,59.14
2023-04-06T15:33:22.271Z,58.77
2023-04-06T15:35:51.567Z,58.55
2023-04-06T15:38:20.671Z,58.16
2023-04-06T15:40:51.644Z,58.24
2023-04-06T15:43:20.997Z,58.58
2023-04-06T15:45:50.081Z,59.03
2023-04-06T15:48:20.343Z,58.40
2023-04-06T15:50:49.758Z,58.24
2023-04-06T15:53:18.758Z,59.17
2023-04-06T15:55:48.129Z,59.56
2023-04-06T15:58:17.260Z,60.03
2023-04-06T16:00:46.555Z,59.50
2023-04-06T16:03:15.941Z,58.73
2023-04-06T16:05:59.186Z,58.85
2023-04-06T16:08:34.281Z,58.86
2023-04-06T16:11:03.531Z,59.51
2023-04-06T16:13:32.940Z,59.66
2023-04-06T16:16:02.563Z,60.47
2023-04-06T16:18:34.107Z,60.99
2023-04-06T16:21:06.484Z,60.47
2023-04-06T16:23:36.017Z,60.49
2023-04-06T16:26:14.050Z,60.15
2023-04-06T16:28:43.965Z,59.90
2023-04-06T16:31:23.332Z,60.32
2023-04-06T16:33:57.367Z,60.46
2023-04-06T16:36:30.918Z,60.55
2023-04-06T16:39:03.402Z,60.20
2023-04-06T16:41:33.807Z,60.44
2023-04-06T16:44:46.467Z,60.73
2023-04-06T16:47:18.917Z,59.93
2023-04-06T16:49:48.069Z,59.49
2023-04-06T16:52:17.383Z,59.28
2023-04-06T16:54:47.134Z,58.87
2023-04-06T16:57:16.603Z,58.44
2023-04-06T16:59:45.863Z,58.20
2023-04-06T17:02:15.547Z,58.00
2023-04-06T17:04:45.312Z,57.51
2023-04-06T17:07:14.635Z,57.29
2023-04-06T17:09:43.873Z,57.61
2023-04-06T17:12:14.667Z,57.76
2023-04-06T17:14:44.159Z,58.33
2023-04-06T17:17:13.549Z,58.18
2023-04-06T17:19:42.971Z,58.09
2023-04-06T17:22:12.242Z,57.82
2023-04-06T17:24:41.627Z,58.54
2023-04-06T17:27:10.752Z,58.86
2023-04-06T17:29:40.187Z,59.04
2023-04-06T17:32:09.404Z,59.56
2023-04-06T17:34:38.807Z,59.80
2023-04-06T17:37:08.107Z,59.87
2023-04-06T17:39:37.865Z,59.38
2023-04-06T17:42:07.234Z,58.04
2023-04-06T17:44:36.613Z,57.50
2023-04-06T17:47:05.756Z,57.53
2023-04-06T17:49:35.227Z,57.15
2023-04-06T17:52:04.517Z,57.03
2023-04-06T17:54:34.943Z,56.77
2023-04-06T17:57:05.159Z,57.31
2023-04-06T17:59:34.411Z,56.82
2023-04-06T18:02:05.325Z,56.05
2023-04-06T18:04:34.900Z,55.43
2023-04-06T18:07:04.425Z,55.67
2023-04-06T18:09:33.940Z,55.65
2023-04-06T18:12:03.547Z,55.50
2023-04-06T18:14:33.691Z,55.96
2023-04-06T18:17:02.934Z,55.79
2023-04-06T18:19:33.430Z,55.76
2023-04-06T18:22:02.926Z,55.43
2023-04-06T18:24:41.134Z,55.74
2023-04-06T18:27:14.175Z,56.57
2023-04-06T18:29:48.476Z,57.22
2023-04-06T18:32:18.084Z,57.23
2023-04-06T18:34:47.284Z,57.43
2023-04-06T18:37:17.297Z,58.30
2023-04-06T18:39:46.879Z,58.98
2023-04-06T18:42:15.943Z,57.08
2023-04-06T18:44:45.291Z,56.08
2023-04-06T18:47:14.512Z,55.33
2023-04-06T18:49:43.953Z,55.63
2023-04-06T18:52:13.070Z,56.01
2023-04-06T18:54:42.431Z,55.95
2023-04-06T18:57:12.311Z,56.10
2023-04-06T18:59:41.776Z,56.90
2023-04-06T19:02:11.095Z,56.94
2023-04-06T19:04:40.713Z,57.24
2023-04-06T19:07:09.861Z,57.58
2023-04-06T19:09:39.253Z,57.67
2023-04-06T19:12:08.363Z,57.33
2023-04-06T19:14:37.719Z,56.97
2023-04-06T19:17:06.932Z,56.30
2023-04-06T19:19:36.354Z,56.43
2023-04-06T19:22:05.494Z,56.71
2023-04-06T19:24:34.895Z,57.89
2023-04-06T19:27:04.340Z,58.63
2023-04-06T19:29:33.571Z,59.73
2023-04-06T19:32:03.209Z,58.74
2023-04-06T19:34:32.655Z,57.46
2023-04-06T19:37:02.188Z,57.31
2023-04-06T19:39:32.396Z,56.94
2023-04-06T19:42:02.048Z,56.79
2023-04-06T19:44:31.366Z,57.15
2023-04-06T19:47:01.085Z,57.15
2023-04-06T19:49:30.434Z,56.98
2023-04-06T19:51:59.942Z,57.38
2023-04-06T19:54:29.093Z,57.84
2023-04-06T19:56:58.445Z,57.58
2023-04-06T19:59:27.545Z,57.32
2023-04-06T20:01:59.244Z,57.90
2023-04-06T20:04:32.373Z,57.68
2023-04-06T20:07:04.239Z,58.02
2023-04-06T20:09:35.538Z,57.89
2023-04-06T20:12:06.857Z,58.29
2023-04-06T20:14:38.533Z,57.71
2023-04-06T20:17:09.807Z,57.76
2023-04-06T20:19:41.972Z,57.23
2023-04-06T20:22:13.405Z,57.42
2023-04-06T20:24:44.957Z,57.33
2023-04-06T20:27:16.393Z,57.34
2023-04-06T20:29:48.407Z,57.15
2023-04-06T20:32:23.080Z,56.88
2023-04-06T20:34:55.435Z,56.69
2023-04-06T20:37:28.459Z,56.44
2023-04-06T20:39:58.687Z,56.30
2023-04-06T20:42:34.725Z,56.44
2023-04-06T20:45:10.751Z,56.40
2023-04-06T20:47:44.705Z,56.89
2023-04-06T20:50:17.283Z,57.15
2023-04-06T20:52:54.788Z,56.83
2023-04-06T20:55:28.669Z,57.23
2023-04-06T20:58:04.721Z,56.92
2023-04-06T21:00:45.107Z,56.44
2023-04-06T21:03:21.367Z,56.34
2023-04-06T21:06:03.899Z,56.78
2023-04-06T21:08:39.873Z,56.64
2023-04-06T21:11:20.194Z,56.35
2023-04-06T21:13:56.349Z,56.39
2023-04-06T21:16:32.400Z,56.59
2023-04-06T21:19:08.558Z,56.58
2023-04-06T21:21:44.600Z,56.38
2023-04-06T21:24:20.647Z,56.41
2023-04-06T21:26:56.737Z,56.63
2023-04-06T21:29:30.834Z,56.77
2023-04-06T21:32:07.000Z,56.42
2023-04-06T21:34:43.638Z,56.39
2023-04-06T21:37:19.805Z,56.54
2023-04-06T21:39:56.213Z,56.79
2023-04-06T21:42:28.733Z,56.56
2023-04-06T21:45:04.257Z,56.24
2023-04-06T21:47:40.400Z,56.63
2023-04-06T21:50:18.767Z,56.91
2023-04-06T21:52:54.687Z,56.61
2023-04-06T21:55:29.210Z,56.64
2023-04-06T21:58:05.483Z,56.92
2023-04-06T22:00:41.748Z,57.22
2023-04-06T22:03:18.230Z,57.66
2023-04-06T22:05:53.850Z,57.65
2023-04-06T22:08:33.680Z,57.88
2023-04-06T22:11:15.017Z,57.78
2023-04-06T22:13:49.985Z,58.00
2023-04-06T22:16:25.506Z,58.68
2023-04-06T22:19:01.806Z,58.44
2023-04-06T22:21:37.830Z,59.14
2023-04-06T22:24:13.693Z,59.21
2023-04-06T22:26:48.125Z,59.33
2023-04-06T22:29:23.335Z,59.66
2023-04-06T22:31:57.982Z,59.85
2023-04-06T22:34:34.075Z,60.07
2023-04-06T22:37:08.223Z,60.36
2023-04-06T22:39:44.298Z,60.65
2023-04-06T22:42:18.513Z,60.69
2023-04-06T22:44:54.751Z,60.91
2023-04-06T22:47:31.026Z,61.48
2023-04-06T22:50:08.702Z,61.35
2023-04-06T22:52:42.855Z,61.53
2023-04-06T22:55:19.081Z,61.28
2023-04-06T22:57:55.256Z,61.53
2023-04-06T23:00:29.383Z,61.44
2023-04-06T23:03:05.851Z,61.39
2023-04-06T23:05:42.109Z,61.38
2023-04-06T23:08:18.297Z,61.01
2023-04-06T23:10:56.002Z,61.05
2023-04-06T23:13:30.408Z,60.91
2023-04-06T23:16:04.677Z,60.79
2023-04-06T23:18:40.782Z,61.03
2023-04-06T23:21:15.019Z,61.03
2023-04-06T23:23:49.751Z,60.96
2023-04-06T23:26:25.221Z,61.06
2023-04-06T23:29:00.814Z,61.20
2023-04-06T23:31:34.761Z,61.30
2023-04-06T23:34:09.027Z,61.00
2023-04-06T23:36:43.275Z,60.90
2023-04-06T23:39:19.321Z,61.23
2023-04-06T23:41:55.137Z,61.17
2023-04-06T23:44:34.281Z,61.63
2023-04-06T23:47:10.466Z,61.76
2023-04-06T23:49:46.734Z,61.71
2023-04-06T23:52:22.618Z,61.66
2023-04-06T23:54:58.988Z,61.46
2023-04-06T23:57:33.905Z,61.72
